Time,TemperatureF,DewpointF,PressureIn,WindDirection,WindDirectionDegrees,WindSpeedMPH,WindSpeedGustMPH,Humidity,HourlyPrecipIn,Conditions,Clouds,dailyrainin,SoftwareType,DateUTC
2013-02-25 00:02:00,27.5,19.7,29.97,SW,225,1.1,-999.0,72,-99.99,,,0.00,Acu-Link.com,2013-02-25 05:02:00,
2013-02-25 00:17:00,28.0,20.2,29.97,SSW,202,2.7,-999.0,72,-99.99,,,0.00,Acu-Link.com,2013-02-25 05:17:00,
2013-02-25 00:33:00,28.4,20.2,29.98,West,270,1.1,-999.0,71,-99.99,,,0.00,Acu-Link.com,2013-02-25 05:33:00,
2013-02-25 00:48:00,28.6,20.4,29.99,West,270,1.7,-999.0,71,-99.99,,,0.00,Acu-Link.com,2013-02-25 05:48:00,
2013-02-25 01:03:00,28.0,20.2,29.99,SSW,202,2.2,-999.0,72,-99.99,,,0.00,Acu-Link.com,2013-02-25 06:03:00,
2013-02-25 01:18:00,27.1,19.3,29.99,WSW,247,1.7,-999.0,72,-99.99,,,0.00,Acu-Link.com,2013-02-25 06:18:00,
2013-02-25 01:33:00,27.1,19.6,29.99,WSW,247,2.7,-999.0,73,-99.99,,,0.00,Acu-Link.com,2013-02-25 06:33:00,
2013-02-25 01:49:00,27.1,19.6,30.00,SW,225,0.0,-999.0,73,-99.99,,,0.00,Acu-Link.com,2013-02-25 06:49:00,
2013-02-25 02:04:00,26.1,19.0,30.00,West,270,0.0,-999.0,74,-99.99,,,0.00,Acu-Link.com,2013-02-25 07:04:00,
2013-02-25 02:19:00,25.0,17.9,30.00,West,270,0.0,-999.0,74,-99.99,,,0.00,Acu-Link.com,2013-02-25 07:19:00,
2013-02-25 02:34:00,23.9,17.5,30.00,WNW,292,1.7,-999.0,76,-99.99,,,0.00,Acu-Link.com,2013-02-25 07:34:00,
2013-02-25 02:49:00,23.7,17.3,30.00,West,270,1.7,-999.0,76,-99.99,,,0.00,Acu-Link.com,2013-02-25 07:49:00,
2013-02-25 03:05:00,23.5,17.4,30.00,West,270,1.7,-999.0,77,-99.99,,,0.00,Acu-Link.com,2013-02-25 08:05:00,
2013-02-25 03:20:00,23.2,17.1,30.01,NE,45,0.0,-999.0,77,-99.99,,,0.00,Acu-Link.com,2013-02-25 08:20:00,
2013-02-25 03:35:00,22.8,17.0,30.00,West,270,1.7,-999.0,78,-99.99,,,0.00,Acu-Link.com,2013-02-25 08:35:00,
2013-02-25 03:50:00,22.6,17.1,30.01,NNW,337,0.0,-999.0,79,-99.99,,,0.00,Acu-Link.com,2013-02-25 08:50:00,
2013-02-25 04:17:00,22.5,17.3,30.01,West,270,0.0,-999.0,80,-99.99,,,0.00,Acu-Link.com,2013-02-25 09:17:00,
2013-02-25 04:33:00,21.9,17.0,30.02,WSW,247,0.0,-999.0,81,-99.99,,,0.00,Acu-Link.com,2013-02-25 09:33:00,
2013-02-25 04:48:00,21.4,16.8,30.02,NW,315,0.0,-999.0,82,-99.99,,,0.00,Acu-Link.com,2013-02-25 09:48:00,
2013-02-25 05:03:00,21.2,16.6,30.02,West,270,1.7,-999.0,82,-99.99,,,0.00,Acu-Link.com,2013-02-25 10:03:00,
2013-02-25 05:18:00,21.2,16.9,30.03,West,270,1.1,-999.0,83,-99.99,,,0.00,Acu-Link.com,2013-02-25 10:18:00,
2013-02-25 05:33:00,21.4,17.1,30.03,West,270,1.1,-999.0,83,-99.99,,,0.00,Acu-Link.com,2013-02-25 10:33:00,
2013-02-25 05:49:00,21.2,16.9,30.04,West,270,1.7,-999.0,83,-99.99,,,0.00,Acu-Link.com,2013-02-25 10:49:00,
2013-02-25 06:04:00,21.0,16.9,30.04,WNW,292,1.1,-999.0,84,-99.99,,,0.00,Acu-Link.com,2013-02-25 11:04:00,
2013-02-25 06:19:00,20.5,16.7,30.05,WNW,292,0.0,-999.0,85,-99.99,,,0.00,Acu-Link.com,2013-02-25 11:19:00,
2013-02-25 06:34:00,20.5,17.0,30.06,WNW,292,0.0,-999.0,86,-99.99,,,0.00,Acu-Link.com,2013-02-25 11:34:00,
2013-02-25 06:49:00,20.5,17.0,30.06,WSW,247,0.0,-999.0,86,-99.99,,,0.00,Acu-Link.com,2013-02-25 11:49:00,
2013-02-25 07:05:00,20.1,16.6,30.07,NW,315,0.0,-999.0,86,-99.99,,,0.00,Acu-Link.com,2013-02-25 12:05:00,
2013-02-25 07:20:00,20.1,16.9,30.08,West,270,0.0,-999.0,87,-99.99,,,0.00,Acu-Link.com,2013-02-25 12:20:00,
2013-02-25 07:35:00,21.0,17.8,30.07,SW,225,0.0,-999.0,87,-99.99,,,0.00,Acu-Link.com,2013-02-25 12:35:00,
2013-02-25 07:50:00,22.5,19.0,30.07,ESE,112,0.0,-999.0,86,-99.99,,,0.00,Acu-Link.com,2013-02-25 12:50:00,
2013-02-25 08:05:00,24.6,19.6,30.07,East,90,1.7,-999.0,81,-99.99,,,0.00,Acu-Link.com,2013-02-25 13:05:00,
2013-02-25 08:21:00,28.2,21.0,30.08,NNE,22,0.0,-999.0,74,-99.99,,,0.00,Acu-Link.com,2013-02-25 13:21:00,
2013-02-25 08:36:00,34.3,23.8,30.08,ESE,112,1.7,-999.0,65,-99.99,,,0.00,Acu-Link.com,2013-02-25 13:36:00,
2013-02-25 08:51:00,37.6,25.0,30.08,ESE,112,1.7,-999.0,60,-99.99,,,0.00,Acu-Link.com,2013-02-25 13:51:00,
2013-02-25 09:21:00,34.2,23.7,30.10,West,270,2.2,-999.0,65,-99.99,,,0.00,Acu-Link.com,2013-02-25 14:21:00,
2013-02-25 09:36:00,36.0,24.3,30.09,SW,225,1.7,-999.0,62,-99.99,,,0.00,Acu-Link.com,2013-02-25 14:36:00,
2013-02-25 09:52:00,36.0,23.9,30.08,SSW,202,1.7,-999.0,61,-99.99,,,0.00,Acu-Link.com,2013-02-25 14:52:00,
2013-02-25 10:07:00,37.6,25.4,30.08,SW,225,1.7,-999.0,61,-99.99,,,0.00,Acu-Link.com,2013-02-25 15:07:00,
2013-02-25 10:22:00,36.9,24.7,30.08,NNW,337,2.2,-999.0,61,-99.99,,,0.00,Acu-Link.com,2013-02-25 15:22:00,
2013-02-25 10:37:00,39.4,25.5,30.09,South,180,1.7,-999.0,57,-99.99,,,0.00,Acu-Link.com,2013-02-25 15:37:00,
2013-02-25 10:52:00,37.9,25.7,30.09,ESE,112,2.7,-999.0,61,-99.99,,,0.00,Acu-Link.com,2013-02-25 15:52:00,
2013-02-25 11:08:00,38.5,25.4,30.09,ESE,112,4.2,-999.0,59,-99.99,,,0.00,Acu-Link.com,2013-02-25 16:08:00,
2013-02-25 11:23:00,39.2,25.7,30.09,ENE,67,3.7,-999.0,58,-99.99,,,0.00,Acu-Link.com,2013-02-25 16:23:00,
2013-02-25 11:38:00,41.5,26.6,30.09,SW,225,2.2,-999.0,55,-99.99,,,0.00,Acu-Link.com,2013-02-25 16:38:00,
2013-02-25 11:53:00,42.3,26.4,30.08,SSW,202,1.1,-999.0,53,-99.99,,,0.00,Acu-Link.com,2013-02-25 16:53:00,
2013-02-25 12:08:00,41.2,25.8,30.08,ESE,112,3.2,-999.0,54,-99.99,,,0.00,Acu-Link.com,2013-02-25 17:08:00,
2013-02-25 12:24:00,42.6,26.2,30.08,East,90,4.2,-999.0,52,-99.99,,,0.00,Acu-Link.com,2013-02-25 17:24:00,
2013-02-25 12:39:00,43.0,25.6,30.07,NE,45,1.1,-999.0,50,-99.99,,,0.00,Acu-Link.com,2013-02-25 17:39:00,
2013-02-25 12:54:00,44.4,24.9,30.05,ESE,112,3.7,-999.0,46,-99.99,,,0.00,Acu-Link.com,2013-02-25 17:54:00,
2013-02-25 13:09:00,43.2,23.8,30.06,NNW,337,1.1,-999.0,46,-99.99,,,0.00,Acu-Link.com,2013-02-25 18:09:00,
2013-02-25 13:25:00,41.2,22.5,30.06,WSW,247,0.0,-999.0,47,-99.99,,,0.00,Acu-Link.com,2013-02-25 18:25:00,
2013-02-25 13:40:00,40.8,22.2,30.06,ESE,112,1.7,-999.0,47,-99.99,,,0.00,Acu-Link.com,2013-02-25 18:40:00,
2013-02-25 13:55:00,42.1,22.8,30.05,ESE,112,3.2,-999.0,46,-99.99,,,0.00,Acu-Link.com,2013-02-25 18:55:00,
2013-02-25 14:10:00,40.5,22.4,30.05,ESE,112,2.7,-999.0,48,-99.99,,,0.00,Acu-Link.com,2013-02-25 19:10:00,
2013-02-25 14:25:00,41.2,23.5,30.05,East,90,2.2,-999.0,49,-99.99,,,0.00,Acu-Link.com,2013-02-25 19:25:00,
2013-02-25 14:41:00,44.6,24.6,30.05,West,270,2.2,-999.0,45,-99.99,,,0.00,Acu-Link.com,2013-02-25 19:41:00,
2013-02-25 14:56:00,44.8,23.7,30.04,SE,135,1.1,-999.0,43,-99.99,,,0.00,Acu-Link.com,2013-02-25 19:56:00,
2013-02-25 15:11:00,43.5,22.5,30.04,East,90,2.2,-999.0,43,-99.99,,,0.00,Acu-Link.com,2013-02-25 20:11:00,
2013-02-25 15:26:00,43.5,22.5,30.03,East,90,3.7,-999.0,43,-99.99,,,0.00,Acu-Link.com,2013-02-25 20:26:00,
2013-02-25 15:41:00,43.0,23.1,30.04,ESE,112,3.2,-999.0,45,-99.99,,,0.00,Acu-Link.com,2013-02-25 20:41:00,
2013-02-25 15:57:00,43.0,22.6,30.03,ESE,112,0.0,-999.0,44,-99.99,,,0.00,Acu-Link.com,2013-02-25 20:57:00,
2013-02-25 16:12:00,44.1,23.1,30.05,East,90,2.7,-999.0,43,-99.99,,,0.00,Acu-Link.com,2013-02-25 21:12:00,
2013-02-25 16:27:00,44.1,23.1,30.04,ESE,112,2.7,-999.0,43,-99.99,,,0.00,Acu-Link.com,2013-02-25 21:27:00,
2013-02-25 16:42:00,43.2,22.8,30.05,South,180,1.1,-999.0,44,-99.99,,,0.00,Acu-Link.com,2013-02-25 21:42:00,
2013-02-25 16:57:00,43.3,23.9,30.06,SW,225,0.0,-999.0,46,-99.99,,,0.00,Acu-Link.com,2013-02-25 21:57:00,
2013-02-25 17:13:00,42.6,24.8,30.06,West,270,0.0,-999.0,49,-99.99,,,0.00,Acu-Link.com,2013-02-25 22:13:00,
2013-02-25 17:28:00,40.6,23.0,30.06,NW,315,0.0,-999.0,49,-99.99,,,0.00,Acu-Link.com,2013-02-25 22:28:00,
2013-02-25 17:43:00,38.3,22.2,30.05,West,270,0.0,-999.0,52,-99.99,,,0.00,Acu-Link.com,2013-02-25 22:43:00,
2013-02-25 17:58:00,36.1,21.9,30.06,West,270,0.0,-999.0,56,-99.99,,,0.00,Acu-Link.com,2013-02-25 22:58:00,
2013-02-25 18:14:00,34.5,23.6,30.06,West,270,1.7,-999.0,64,-99.99,,,0.00,Acu-Link.com,2013-02-25 23:14:00,
2013-02-25 18:29:00,33.6,23.1,30.06,West,270,1.1,-999.0,65,-99.99,,,0.00,Acu-Link.com,2013-02-25 23:29:00,
2013-02-25 18:44:00,32.7,23.0,30.06,West,270,1.7,-999.0,67,-99.99,,,0.00,Acu-Link.com,2013-02-25 23:44:00,
2013-02-25 18:59:00,32.2,23.2,30.07,West,270,1.7,-999.0,69,-99.99,,,0.00,Acu-Link.com,2013-02-25 23:59:00,
2013-02-25 19:14:00,32.0,23.3,30.08,West,270,1.7,-999.0,70,-99.99,,,0.00,Acu-Link.com,2013-02-26 00:14:00,
2013-02-25 19:30:00,31.5,22.5,30.08,South,180,0.0,-999.0,69,-99.99,,,0.00,Acu-Link.com,2013-02-26 00:30:00,
2013-02-25 19:45:00,30.7,22.4,30.08,West,270,0.0,-999.0,71,-99.99,,,0.00,Acu-Link.com,2013-02-26 00:45:00,
2013-02-25 20:00:00,30.4,21.5,30.08,NNW,337,0.0,-999.0,69,-99.99,,,0.00,Acu-Link.com,2013-02-26 01:00:00,
2013-02-25 20:15:00,30.4,21.8,30.09,West,270,0.0,-999.0,70,-99.99,,,0.00,Acu-Link.com,2013-02-26 01:15:00,
2013-02-25 20:30:00,30.4,22.1,30.10,NNW,337,0.0,-999.0,71,-99.99,,,0.00,Acu-Link.com,2013-02-26 01:30:00,
2013-02-25 20:46:00,30.2,21.9,30.11,West,270,0.0,-999.0,71,-99.99,,,0.00,Acu-Link.com,2013-02-26 01:46:00,
2013-02-25 21:01:00,29.8,21.9,30.11,NW,315,0.0,-999.0,72,-99.99,,,0.00,Acu-Link.com,2013-02-26 02:01:00,
2013-02-25 21:16:00,29.8,21.9,30.10,SW,225,0.0,-999.0,72,-99.99,,,0.00,Acu-Link.com,2013-02-26 02:16:00,
2013-02-25 21:31:00,29.5,21.9,30.10,NNE,22,0.0,-999.0,73,-99.99,,,0.00,Acu-Link.com,2013-02-26 02:31:00,
2013-02-25 21:46:00,29.1,21.5,30.10,NW,315,0.0,-999.0,73,-99.99,,,0.00,Acu-Link.com,2013-02-26 02:46:00,
2013-02-25 22:02:00,29.1,21.5,30.10,NNW,337,0.0,-999.0,73,-99.99,,,0.00,Acu-Link.com,2013-02-26 03:02:00,
2013-02-25 22:17:00,28.9,21.7,30.10,NNW,337,0.0,-999.0,74,-99.99,,,0.00,Acu-Link.com,2013-02-26 03:17:00,
2013-02-25 22:32:00,28.6,21.4,30.10,West,270,0.0,-999.0,74,-99.99,,,0.00,Acu-Link.com,2013-02-26 03:32:00,
2013-02-25 22:47:00,28.2,21.0,30.09,NNW,337,0.0,-999.0,74,-99.99,,,0.00,Acu-Link.com,2013-02-26 03:47:00,
2013-02-25 23:02:00,27.9,21.0,30.09,North,0,0.0,-999.0,75,-99.99,,,0.00,Acu-Link.com,2013-02-26 04:02:00,
2013-02-25 23:18:00,27.9,21.0,30.09,West,270,0.0,-999.0,75,-99.99,,,0.00,Acu-Link.com,2013-02-26 04:18:00,
2013-02-25 23:33:00,27.7,20.8,30.09,NW,315,0.0,-999.0,75,-99.99,,,0.00,Acu-Link.com,2013-02-26 04:33:00,
2013-02-25 23:48:00,27.1,20.9,30.09,WNW,292,0.0,-999.0,77,-99.99,,,0.00,Acu-Link.com,2013-02-26 04:48:00,